createdAt,value
2023-01-22T00:01:55.290Z,103089.25
2023-01-22T00:05:56.694Z,103090.94
2023-01-22T00:09:59.848Z,103094.44
2023-01-22T00:14:01.408Z,103097.38
2023-01-22T00:18:02.879Z,103084.50
2023-01-22T00:22:04.272Z,103091.72
2023-01-22T00:26:11.926Z,103089.09
2023-01-22T00:30:15.768Z,103075.16
2023-01-22T00:34:17.306Z,103081.34
2023-01-22T00:38:18.719Z,103077.28
2023-01-22T00:42:20.189Z,103079.47
2023-01-22T00:46:22.006Z,103079.47
2023-01-22T00:50:23.463Z,103072.97
2023-01-22T00:54:25.011Z,103074.28
2023-01-22T00:58:28.482Z,103074.72
2023-01-22T01:02:29.967Z,103071.78
2023-01-22T01:06:31.397Z,103072.91
2023-01-22T01:10:32.853Z,103091.28
2023-01-22T01:14:34.380Z,103082.53
2023-01-22T01:18:36.491Z,103083.84
2023-01-22T01:22:38.214Z,103075.09
2023-01-22T01:26:41.031Z,103068.63
2023-01-22T01:30:44.134Z,103080.22
2023-01-22T01:34:47.855Z,103071.56
2023-01-22T01:38:49.881Z,103074.47
2023-01-22T01:42:52.015Z,103072.66
2023-01-22T01:46:57.810Z,103065.56
2023-01-22T01:51:11.509Z,103068.38
2023-01-22T01:55:16.187Z,103059.88
2023-01-22T01:59:20.860Z,103064.38
2023-01-22T02:03:22.520Z,103057.72
2023-01-22T02:07:23.971Z,103060.56
2023-01-22T02:11:25.592Z,103074.06
2023-01-22T02:15:27.118Z,103074.03
2023-01-22T02:19:28.623Z,103078.88
2023-01-22T02:23:32.091Z,103079.59
2023-01-22T02:27:33.816Z,103069.81
2023-01-22T02:31:36.883Z,103076.00
2023-01-22T02:35:38.988Z,103078.56
2023-01-22T02:39:40.607Z,103076.13
2023-01-22T02:43:42.449Z,103068.22
2023-01-22T02:47:43.880Z,103068.53
2023-01-22T02:51:45.388Z,103069.44
2023-01-22T02:55:48.930Z,103062.16
2023-01-22T02:59:50.552Z,103064.56
2023-01-22T03:03:54.000Z,103063.44
2023-01-22T03:07:55.480Z,103061.28
2023-01-22T03:11:58.185Z,103060.78
2023-01-22T03:16:23.309Z,103062.44
2023-01-22T03:20:44.193Z,103062.88
2023-01-22T03:24:53.538Z,103060.22
2023-01-22T03:28:57.768Z,103072.22
2023-01-22T03:32:59.313Z,103065.97
2023-01-22T03:37:00.846Z,103063.97
2023-01-22T03:41:06.903Z,103049.19
2023-01-22T03:45:09.960Z,103055.28
2023-01-22T03:49:14.015Z,103059.66
2023-01-22T03:53:16.472Z,103064.69
2023-01-22T03:57:17.917Z,103056.78
2023-01-22T04:01:25.584Z,103056.03
2023-01-22T04:05:27.430Z,103062.69
2023-01-22T04:09:29.520Z,103051.44
2023-01-22T04:13:34.440Z,103060.41
2023-01-22T04:17:36.518Z,103053.53
2023-01-22T04:21:54.163Z,103058.69
2023-01-22T04:25:55.643Z,103067.31
2023-01-22T04:29:57.060Z,103056.13
2023-01-22T04:33:59.458Z,103059.59
2023-01-22T04:38:04.615Z,103062.38
2023-01-22T04:42:06.059Z,103061.00
2023-01-22T04:46:08.282Z,103061.00
2023-01-22T04:50:16.292Z,103063.72
2023-01-22T04:54:18.102Z,103065.06
2023-01-22T04:58:19.823Z,103059.19
2023-01-22T05:02:21.480Z,103065.38
2023-01-22T05:06:24.687Z,103068.53
2023-01-22T05:10:26.430Z,103074.25
2023-01-22T05:14:28.511Z,103076.84
2023-01-22T05:18:30.147Z,103076.84
2023-01-22T05:22:33.036Z,103082.00
2023-01-22T05:26:34.696Z,103073.03
2023-01-22T05:30:59.031Z,103079.88
2023-01-22T05:39:32.803Z,103069.25
2023-01-22T05:43:38.217Z,103072.91
2023-01-22T05:47:41.253Z,103074.09
2023-01-22T05:52:05.046Z,103081.41
2023-01-22T05:56:08.222Z,103081.72
2023-01-22T06:00:14.048Z,103084.19
2023-01-22T06:04:21.658Z,103089.56
2023-01-22T06:08:24.256Z,103099.47
2023-01-22T06:12:26.797Z,103087.69
2023-01-22T06:16:28.289Z,103090.28
2023-01-22T06:20:39.839Z,103087.00
2023-01-22T06:24:43.080Z,103089.81
2023-01-22T06:28:45.478Z,103087.28
2023-01-22T06:32:47.117Z,103093.06
2023-01-22T06:36:48.969Z,103087.75
2023-01-22T06:40:54.943Z,103099.03
2023-01-22T06:44:57.569Z,103106.50
2023-01-22T06:49:02.620Z,103112.72
2023-01-22T06:53:04.232Z,103118.53
2023-01-22T06:57:06.245Z,103120.72
2023-01-22T07:01:11.185Z,103131.63
2023-01-22T07:05:12.604Z,103127.50
2023-01-22T07:09:14.060Z,103133.25
2023-01-22T07:13:16.038Z,103133.53
2023-01-22T07:17:17.482Z,103149.63
2023-01-22T07:21:18.919Z,103147.19
2023-01-22T07:25:20.383Z,103155.41
2023-01-22T07:29:21.873Z,103157.06
2023-01-22T07:33:23.292Z,103147.44
2023-01-22T07:37:24.732Z,103150.00
2023-01-22T07:41:26.494Z,103140.34
2023-01-22T07:45:27.991Z,103149.09
2023-01-22T07:49:29.409Z,103159.75
2023-01-22T07:53:31.438Z,103159.59
2023-01-22T07:57:32.838Z,103171.22
2023-01-22T08:01:34.335Z,103171.00
2023-01-22T08:05:38.939Z,103167.03
2023-01-22T08:09:40.364Z,103167.44
2023-01-22T08:13:41.813Z,103169.91
2023-01-22T08:17:43.286Z,103162.28
2023-01-22T08:21:44.687Z,103171.19
2023-01-22T08:25:46.157Z,103174.16
2023-01-22T08:29:49.740Z,103193.00
2023-01-22T08:33:51.213Z,103194.78
2023-01-22T08:37:52.665Z,103202.78
2023-01-22T08:41:57.645Z,103196.81
2023-01-22T08:45:59.243Z,103213.47
2023-01-22T08:50:02.706Z,103212.72
2023-01-22T08:54:04.335Z,103217.16
2023-01-22T08:58:05.795Z,103216.94
2023-01-22T09:02:14.097Z,103228.94
2023-01-22T09:06:15.629Z,103232.38
2023-01-22T09:10:19.306Z,103238.56
2023-01-22T09:14:22.069Z,103235.88
2023-01-22T09:18:23.625Z,103243.78
2023-01-22T09:22:25.189Z,103241.03
2023-01-22T09:26:26.841Z,103242.13
2023-01-22T09:30:30.170Z,103240.22
2023-01-22T09:34:33.261Z,103239.75
2023-01-22T09:38:35.011Z,103248.66
2023-01-22T09:42:40.458Z,103247.59
2023-01-22T09:46:50.611Z,103249.53
2023-01-22T09:50:52.256Z,103247.03
2023-01-22T09:54:53.773Z,103244.13
2023-01-22T09:58:57.287Z,103258.03
2023-01-22T10:03:02.557Z,103251.50
2023-01-22T10:07:09.900Z,103248.72
2023-01-22T10:11:11.553Z,103246.38
2023-01-22T10:15:23.334Z,103259.53
2023-01-22T10:19:29.902Z,103254.53
2023-01-22T10:23:33.995Z,103250.41
2023-01-22T10:27:39.469Z,103255.09
2023-01-22T10:31:47.808Z,103251.56
2023-01-22T10:35:52.160Z,103257.63
2023-01-22T10:39:58.615Z,103253.19
2023-01-22T10:44:22.069Z,103255.47
2023-01-22T10:48:23.792Z,103261.78
2023-01-22T10:52:47.533Z,103263.13
2023-01-22T10:56:49.786Z,103258.16
2023-01-22T11:01:06.805Z,103250.97
2023-01-22T11:05:18.334Z,103237.94
2023-01-22T11:09:34.965Z,103241.03
2023-01-22T11:14:00.975Z,103242.13
2023-01-22T11:18:05.762Z,103242.84
2023-01-22T11:22:21.978Z,103239.91
2023-01-22T11:26:35.013Z,103246.84
2023-01-22T11:30:49.811Z,103235.84
2023-01-22T11:35:20.034Z,103233.53
2023-01-22T11:39:46.989Z,103235.91
2023-01-22T11:44:27.752Z,103230.56
2023-01-22T11:49:09.722Z,103230.28
2023-01-22T11:53:43.272Z,103222.91
2023-01-22T11:58:15.868Z,103220.03
2023-01-22T12:02:54.991Z,103213.41
2023-01-22T12:07:26.954Z,103219.28
2023-01-22T12:12:05.738Z,103217.84
2023-01-22T12:16:20.070Z,103214.75
2023-01-22T12:20:49.009Z,103211.69
2023-01-22T12:24:58.401Z,103216.69
2023-01-22T12:29:13.242Z,103222.75
2023-01-22T12:33:20.191Z,103226.28
2023-01-22T12:37:34.488Z,103219.09
2023-01-22T12:41:44.607Z,103230.59
2023-01-22T12:45:55.354Z,103220.34
2023-01-22T12:49:56.911Z,103226.84
2023-01-22T12:54:23.208Z,103228.72
2023-01-22T12:58:27.896Z,103221.53
2023-01-22T13:02:35.804Z,103214.00
2023-01-22T13:06:40.193Z,103218.03
2023-01-22T13:10:53.389Z,103215.72
2023-01-22T13:14:55.341Z,103208.00
2023-01-22T13:18:59.853Z,103214.06
2023-01-22T13:23:05.136Z,103211.19
2023-01-22T13:27:20.777Z,103221.16
2023-01-22T13:31:23.060Z,103222.38
2023-01-22T13:35:24.553Z,103228.19
2023-01-22T13:39:30.908Z,103237.06
2023-01-22T13:43:35.022Z,103239.34
2023-01-22T13:47:36.514Z,103242.09
2023-01-22T13:51:38.555Z,103247.38
2023-01-22T13:55:40.065Z,103250.66
2023-01-22T13:59:52.094Z,103249.59
2023-01-22T14:04:01.335Z,103252.25
2023-01-22T14:08:06.053Z,103257.81
2023-01-22T14:12:19.533Z,103259.34
2023-01-22T14:16:21.245Z,103262.72
2023-01-22T14:20:22.674Z,103262.13
2023-01-22T14:24:25.156Z,103264.69
2023-01-22T14:28:29.149Z,103270.50
2023-01-22T14:32:31.674Z,103266.66
2023-01-22T14:36:33.139Z,103271.78
2023-01-22T14:40:34.896Z,103275.31
2023-01-22T14:44:36.322Z,103278.31
2023-01-22T14:48:38.616Z,103281.41
2023-01-22T14:52:40.081Z,103292.63
2023-01-22T14:56:41.563Z,103292.84
2023-01-22T15:00:43.213Z,103295.09
2023-01-22T15:04:45.052Z,103289.00
2023-01-22T15:08:46.454Z,103285.44
2023-01-22T15:12:49.764Z,103286.97
2023-01-22T15:16:51.557Z,103293.16
2023-01-22T15:20:53.011Z,103302.47
2023-01-22T15:24:54.408Z,103295.50
2023-01-22T15:28:55.849Z,103305.03
2023-01-22T15:32:57.251Z,103302.31
2023-01-22T15:36:58.637Z,103311.00
2023-01-22T15:41:05.750Z,103308.06
2023-01-22T15:45:07.815Z,103313.25
2023-01-22T15:49:10.327Z,103305.19
2023-01-22T15:53:11.798Z,103311.56
2023-01-22T15:57:14.093Z,103307.03
2023-01-22T16:01:15.777Z,103313.78
2023-01-22T16:05:17.409Z,103320.69
2023-01-22T16:09:18.886Z,103317.81
2023-01-22T16:13:20.289Z,103321.19
2023-01-22T16:17:22.584Z,103318.81
2023-01-22T16:21:24.594Z,103326.88
2023-01-22T16:25:26.006Z,103324.16
2023-01-22T16:29:27.433Z,103329.72
2023-01-22T16:33:31.566Z,103326.53
2023-01-22T16:37:33.058Z,103327.16
2023-01-22T16:41:36.277Z,103331.28
2023-01-22T16:45:37.728Z,103333.88
2023-01-22T16:49:39.283Z,103327.53
2023-01-22T16:53:40.704Z,103329.50
2023-01-22T16:57:42.120Z,103333.53
2023-01-22T17:01:44.050Z,103334.44
2023-01-22T17:05:48.279Z,103336.78
2023-01-22T17:09:49.712Z,103337.47
2023-01-22T17:13:51.643Z,103344.47
2023-01-22T17:17:53.105Z,103349.13
2023-01-22T17:21:58.781Z,103350.34
2023-01-22T17:26:05.102Z,103360.88
2023-01-22T17:30:08.840Z,103366.38
2023-01-22T17:34:11.597Z,103368.63
2023-01-22T17:38:13.017Z,103372.00
2023-01-22T17:42:14.444Z,103374.41
2023-01-22T17:46:18.345Z,103374.97
2023-01-22T17:50:20.162Z,103376.34
2023-01-22T17:54:21.812Z,103377.44
2023-01-22T17:58:23.280Z,103385.03
2023-01-22T18:02:25.041Z,103384.94
2023-01-22T18:06:26.546Z,103385.03
2023-01-22T18:10:28.148Z,103393.47
2023-01-22T18:14:33.819Z,103398.06
2023-01-22T18:18:37.092Z,103406.28
2023-01-22T18:22:38.588Z,103417.56
2023-01-22T18:26:40.621Z,103419.03
2023-01-22T18:30:42.308Z,103413.13
2023-01-22T18:34:43.797Z,103412.59
2023-01-22T18:38:45.723Z,103405.13
2023-01-22T18:42:48.023Z,103419.38
2023-01-22T18:46:52.228Z,103424.72
2023-01-22T18:50:53.839Z,103418.59
2023-01-22T18:54:55.290Z,103428.91
2023-01-22T18:58:57.892Z,103424.03
2023-01-22T19:02:59.450Z,103428.72
2023-01-22T19:07:01.053Z,103426.06
2023-01-22T19:11:06.219Z,103423.69
2023-01-22T19:15:08.423Z,103425.78
2023-01-22T19:19:13.244Z,103427.50
2023-01-22T19:23:14.913Z,103434.81
2023-01-22T19:27:16.554Z,103443.75
2023-01-22T19:31:21.287Z,103445.13
2023-01-22T19:35:24.059Z,103458.31
2023-01-22T19:39:25.986Z,103450.28
2023-01-22T19:43:27.405Z,103449.78
2023-01-22T19:47:28.809Z,103441.88
2023-01-22T19:51:30.775Z,103437.28
2023-01-22T19:55:36.206Z,103453.66
2023-01-22T19:59:37.621Z,103460.56
2023-01-22T20:03:39.174Z,103456.50
2023-01-22T20:07:40.712Z,103465.16
2023-01-22T20:11:43.766Z,103467.97
2023-01-22T20:15:45.199Z,103472.38
2023-01-22T20:19:46.791Z,103477.28
2023-01-22T20:23:49.603Z,103482.50
2023-01-22T20:27:51.139Z,103488.44
2023-01-22T20:31:52.971Z,103489.72
2023-01-22T20:35:56.454Z,103494.47
2023-01-22T20:39:59.853Z,103494.63
2023-01-22T20:44:01.371Z,103504.50
2023-01-22T20:48:02.857Z,103491.19
2023-01-22T20:52:04.571Z,103483.81
2023-01-22T20:56:08.560Z,103485.75
2023-01-22T21:00:10.758Z,103493.09
2023-01-22T21:04:13.156Z,103486.25
2023-01-22T21:08:15.052Z,103482.91
2023-01-22T21:12:17.006Z,103488.78
2023-01-22T21:16:39.678Z,103492.63
2023-01-22T21:20:41.150Z,103489.53
2023-01-22T21:24:42.694Z,103498.78
2023-01-22T21:28:44.189Z,103499.75
2023-01-22T21:32:50.411Z,103495.38
2023-01-22T21:36:54.123Z,103505.69
2023-01-22T21:41:06.638Z,103498.66
2023-01-22T21:45:27.862Z,103506.53
2023-01-22T21:49:30.524Z,103512.75
2023-01-22T21:53:32.007Z,103512.69
2023-01-22T21:57:33.425Z,103513.97
2023-01-22T22:01:35.377Z,103507.88
2023-01-22T22:05:36.828Z,103504.44
2023-01-22T22:09:38.565Z,103509.75
2023-01-22T22:13:40.020Z,103513.31
2023-01-22T22:17:41.533Z,103516.03
2023-01-22T22:21:43.289Z,103508.25
2023-01-22T22:25:48.767Z,103501.34
2023-01-22T22:29:53.687Z,103506.78
2023-01-22T22:33:56.553Z,103506.78
2023-01-22T22:37:58.044Z,103508.25
2023-01-22T22:41:59.535Z,103499.94
2023-01-22T22:46:03.526Z,103507.53
2023-01-22T22:50:06.355Z,103506.56
2023-01-22T22:54:16.600Z,103516.16
2023-01-22T22:58:18.765Z,103519.00
2023-01-22T23:02:21.173Z,103516.59
2023-01-22T23:06:26.709Z,103522.91
2023-01-22T23:10:42.500Z,103525.03
2023-01-22T23:14:43.921Z,103531.00
2023-01-22T23:18:46.981Z,103544.81
2023-01-22T23:22:51.035Z,103542.16
2023-01-22T23:26:52.557Z,103536.22
2023-01-22T23:30:54.793Z,103548.03
2023-01-22T23:34:56.278Z,103541.34
2023-01-22T23:38:57.690Z,103533.03
2023-01-22T23:42:59.941Z,103536.19
2023-01-22T23:47:01.443Z,103528.19
2023-01-22T23:51:03.593Z,103535.66
2023-01-22T23:55:05.445Z,103539.31
2023-01-22T23:59:06.943Z,103541.84
